Time;durP1;ratioP1;P1;durP2;ratioP2;P2;SDS_P1;SDS_P2;PMS_P1;PMS_P2;Temp;Humidity;BMP_temperature;BMP_pressure;BME280_temperature;BME280_humidity;BME280_pressure;Samples;Min_cycle;Max_cycle;Signal;HPM_P1;HPM_P2
2022/01/28 00:00:28;;;;;;;12.38;2.10;;;;;;;4.65;90.47;103009.19;5056767;28;20059;-35
2022/01/28 00:03:05;;;;;;;14.23;3.53;;;;;;;4.63;90.09;103013.81;5056425;28;20508;-35
2022/01/28 00:05:31;;;;;;;12.85;2.65;;;;;;;4.58;90.12;103014.22;5056691;28;20028;-36
2022/01/28 00:07:57;;;;;;;12.80;2.70;;;;;;;4.55;90.43;103021.72;5056056;28;20040;-35
2022/01/28 00:10:24;;;;;;;15.40;2.33;;;;;;;4.50;90.08;103015.94;5055949;28;20029;-35
2022/01/28 00:15:35;;;;;;;14.07;3.38;;;;;;;4.44;89.97;103019.13;5056610;28;20041;-35
2022/01/28 00:39:26;;;;;;;13.55;2.50;;;;;;;4.36;91.63;103042.09;5055820;28;20079;-36
2022/01/28 00:41:51;;;;;;;7.20;2.07;;;;;;;4.35;92.54;103037.75;5055749;28;20060;-36
2022/01/28 00:44:17;;;;;;;10.53;2.23;;;;;;;4.36;91.68;103044.78;5055234;28;20021;-35
2022/01/28 00:46:42;;;;;;;7.30;2.13;;;;;;;4.35;91.96;103042.25;5055394;28;20385;-35
2022/01/28 00:49:07;;;;;;;8.60;2.40;;;;;;;4.35;91.96;103042.25;5055046;28;20025;-35
2022/01/28 00:51:33;;;;;;;11.57;2.10;;;;;;;4.35;92.25;103039.56;5055014;28;20124;-35
2022/01/28 00:53:58;;;;;;;11.47;2.57;;;;;;;4.32;92.45;103040.69;5055276;28;20032;-36
2022/01/28 00:56:24;;;;;;;7.67;1.73;;;;;;;4.32;92.22;103046.03;5055543;28;20041;-36
2022/01/28 00:58:49;;;;;;;15.00;2.60;;;;;;;4.30;91.98;103033.78;5055175;28;20488;-36
2022/01/28 01:01:14;;;;;;;11.17;2.40;;;;;;;4.37;92.08;103033.09;5054117;28;20048;-35
2022/01/28 01:03:40;;;;;;;9.30;2.10;;;;;;;4.39;91.73;103039.16;5055162;28;20029;-35
2022/01/28 01:06:05;;;;;;;8.17;1.60;;;;;;;4.43;91.65;103044.22;5055270;28;20024;-35
2022/01/28 01:08:31;;;;;;;19.80;2.42;;;;;;;4.36;91.58;103036.75;5054612;28;20028;-35
2022/01/28 01:10:56;;;;;;;15.77;3.37;;;;;;;4.43;91.58;103038.88;5055677;28;20025;-35
2022/01/28 01:13:21;;;;;;;15.17;2.63;;;;;;;4.44;92.02;103053.97;5054608;28;20028;-35
2022/01/28 01:15:52;;;;;;;10.50;2.20;;;;;;;4.43;92.00;103049.59;5055355;28;20100;-35
2022/01/28 01:18:31;;;;;;;11.15;2.20;;;;;;;4.44;91.52;103046.78;5055337;28;20044;-35
2022/01/28 01:21:08;;;;;;;9.32;2.30;;;;;;;4.44;91.49;103045.91;5054670;28;20108;-35
2022/01/28 01:23:37;;;;;;;9.02;1.63;;;;;;;4.46;91.64;103052.84;5054318;28;20080;-35
2022/01/28 01:28:36;;;;;;;11.98;2.75;;;;;;;4.47;91.69;103056.38;5054366;28;20045;-36
2022/01/28 01:31:05;;;;;;;11.52;2.10;;;;;;;4.38;91.89;103047.31;5054904;28;20387;-35
2022/01/28 01:33:35;;;;;;;15.00;2.42;;;;;;;4.46;92.13;103062.72;5053859;28;20369;-35
2022/01/28 01:36:02;;;;;;;11.15;2.17;;;;;;;4.47;92.02;103067.09;5054080;28;20024;-35
2022/01/28 01:38:32;;;;;;;15.07;2.40;;;;;;;4.45;92.21;103064.56;5054276;28;20029;-35
2022/01/28 01:41:00;;;;;;;29.02;3.28;;;;;;;4.47;92.41;103086.69;5054514;28;20377;-36
2022/01/28 01:53:50;;;;;;;12.90;2.08;;;;;;;4.39;92.04;103092.75;5054318;28;20500;-35
2022/01/28 01:56:17;;;;;;;9.95;2.30;;;;;;;4.46;91.88;103110.94;5054796;28;20017;-35
2022/01/28 01:58:43;;;;;;;12.13;2.63;;;;;;;4.46;92.76;103113.63;5054361;28;20037;-35
2022/01/28 02:01:08;;;;;;;11.30;2.10;;;;;;;4.28;92.13;103097.34;5054142;28;20040;-35
2022/01/28 02:03:33;;;;;;;13.13;2.13;;;;;;;4.28;91.90;103106.22;5054563;28;20020;-35
2022/01/28 02:06:00;;;;;;;10.87;2.10;;;;;;;4.42;92.98;103136.31;5054430;28;20028;-35
2022/01/28 02:08:27;;;;;;;12.20;1.83;;;;;;;4.42;92.10;103136.31;5053446;28;20057;-35
2022/01/28 02:10:58;;;;;;;13.98;2.83;;;;;;;4.42;92.66;103137.16;5054315;28;20028;-35
2022/01/28 02:13:29;;;;;;;11.07;1.88;;;;;;;4.46;92.48;103137.75;5053621;28;20040;-35
2022/01/28 02:15:56;;;;;;;11.75;2.22;;;;;;;4.44;92.55;103131.66;5053822;28;20354;-35
2022/01/28 02:18:22;;;;;;;13.35;2.30;;;;;;;4.48;92.75;103130.41;5053608;28;20021;-35
2022/01/28 02:20:52;;;;;;;9.98;1.88;;;;;;;4.45;93.33;103134.22;5054088;28;20037;-35
2022/01/28 02:23:20;;;;;;;15.45;2.97;;;;;;;4.49;93.11;103143.69;5053886;28;20120;-35
2022/01/28 02:25:46;;;;;;;11.40;2.58;;;;;;;4.39;93.15;103122.22;5053331;28;20036;-35
2022/01/28 02:28:15;;;;;;;19.15;2.85;;;;;;;4.53;92.92;103141.56;5053387;28;20025;-35
2022/01/28 02:30:40;;;;;;;12.75;2.10;;;;;;;4.50;93.57;103141.84;5053647;28;20073;-35
2022/01/28 02:33:12;;;;;;;12.90;2.60;;;;;;;4.51;93.11;103141.72;5053634;28;20065;-35
2022/01/28 02:35:38;;;;;;;9.88;2.38;;;;;;;4.52;93.18;103148.75;5053300;28;20362;-35
2022/01/28 02:38:06;;;;;;;14.48;1.98;;;;;;;4.54;92.90;103153.97;5052934;28;20029;-35
2022/01/28 02:40:32;;;;;;;17.92;2.30;;;;;;;4.53;93.85;103152.28;5053733;28;20119;-35
2022/01/28 02:43:13;;;;;;;12.53;2.00;;;;;;;4.50;93.49;103150.72;5053161;28;20151;-35
2022/01/28 02:45:40;;;;;;;14.75;2.17;;;;;;;4.51;93.10;103151.59;5053384;28;20469;-35
2022/01/28 02:48:13;;;;;;;16.00;2.90;;;;;;;4.44;93.96;103142.38;5053097;28;20032;-35
2022/01/28 02:50:46;;;;;;;16.13;2.78;;;;;;;4.50;93.50;103163.28;5053079;28;20021;-35
2022/01/28 02:53:21;;;;;;;13.20;2.60;;;;;;;4.43;93.55;103148.72;5053730;28;20035;-35
2022/01/28 02:55:47;;;;;;;12.65;2.60;;;;;;;4.50;93.39;103168.66;5053263;28;20203;-35
2022/01/28 02:58:21;;;;;;;11.82;2.10;;;;;;;4.51;93.56;103165.81;5052645;28;20061;-35
2022/01/28 03:00:47;;;;;;;12.30;2.00;;;;;;;4.49;93.69;103162.44;5053107;28;20040;-35
2022/01/28 03:03:14;;;;;;;12.10;1.77;;;;;;;4.45;94.17;103165.53;5053059;28;20029;-36
2022/01/28 03:05:41;;;;;;;9.80;2.53;;;;;;;4.49;93.15;103173.16;5053036;28;20112;-36
2022/01/28 03:08:06;;;;;;;7.93;1.77;;;;;;;4.39;93.76;103165.06;5052872;28;20040;-36
2022/01/28 03:13:12;;;;;;;12.20;2.30;;;;;;;4.47;93.65;103179.63;5053324;28;20051;-36
2022/01/28 03:15:40;;;;;;;13.10;2.40;;;;;;;4.44;94.59;103183.44;5053339;28;20032;-37
2022/01/28 03:18:10;;;;;;;12.40;2.53;;;;;;;4.47;94.43;103179.63;5052706;28;20025;-36
2022/01/28 03:23:07;;;;;;;11.35;2.22;;;;;;;4.49;94.59;103183.00;5052843;28;20037;-36
2022/01/28 03:25:36;;;;;;;14.65;2.78;;;;;;;4.49;94.36;103186.56;5053019;28;20533;-36
2022/01/28 03:28:01;;;;;;;10.65;2.33;;;;;;;4.47;94.53;103184.97;5052644;28;20079;-36
2022/01/28 03:30:27;;;;;;;8.65;2.20;;;;;;;4.46;94.72;103178.78;5052921;28;20051;-36
2022/01/28 03:32:52;;;;;;;11.25;2.88;;;;;;;4.46;94.95;103184.13;5053138;28;20036;-36
2022/01/28 03:35:19;;;;;;;14.27;2.30;;;;;;;4.45;94.69;103176.25;5052485;28;20029;-36
2022/01/28 03:37:44;;;;;;;17.70;2.85;;;;;;;4.45;95.10;103184.28;5052563;28;20317;-36
2022/01/28 03:40:11;;;;;;;12.77;3.33;;;;;;;4.41;95.16;103188.19;5052995;28;20040;-36
2022/01/28 03:42:36;;;;;;;;;;;;;;;4.46;94.50;103191.31;5053016;28;20037;-36
2022/01/28 03:45:03;;;;;;;12.63;2.42;;;;;;;4.40;95.36;103195.38;5052980;28;20360;-36
2022/01/28 03:47:29;;;;;;;10.35;1.83;;;;;;;4.34;95.79;103193.22;5052448;28;20397;-36
2022/01/28 03:49:54;;;;;;;13.97;2.70;;;;;;;4.27;95.88;103182.19;5052822;28;20029;-36
2022/01/28 03:52:19;;;;;;;11.03;2.87;;;;;;;4.28;95.58;103188.41;5052289;28;20021;-36
2022/01/28 03:54:45;;;;;;;9.73;1.97;;;;;;;4.18;96.31;103191.03;5053089;28;20120;-36
2022/01/28 03:57:10;;;;;;;10.67;2.27;;;;;;;4.16;96.58;103194.81;5052136;28;20036;-36
2022/01/28 03:59:36;;;;;;;14.80;2.03;;;;;;;4.12;96.57;103196.91;5052522;28;20108;-36
2022/01/28 04:02:04;;;;;;;15.40;2.53;;;;;;;4.16;96.85;103203.72;5052146;28;20111;-36
2022/01/28 04:12:36;;;;;;;12.82;3.00;;;;;;;4.06;97.09;103211.69;5056065;28;20040;-37
2022/01/28 04:17:46;;;;;;;12.23;2.15;;;;;;;4.00;97.61;103203.28;5055922;28;20036;-36
2022/01/28 04:20:12;;;;;;;18.98;3.63;;;;;;;4.04;97.42;103215.44;5055870;28;20128;-36
2022/01/28 04:22:37;;;;;;;22.20;4.43;;;;;;;4.02;98.29;103217.41;5056297;28;20121;-36
2022/01/28 04:25:04;;;;;;;10.53;2.17;;;;;;;4.01;98.21;103218.41;5055918;28;20036;-36
2022/01/28 04:27:29;;;;;;;;;;;;;;;4.03;97.72;103219.09;5056611;28;20392;-36
2022/01/28 04:29:54;;;;;;;10.90;2.10;;;;;;;3.98;98.41;103215.97;5055701;28;19964;-36
2022/01/28 04:32:20;;;;;;;13.13;2.27;;;;;;;3.97;98.40;103225.84;5056020;28;20077;-36
2022/01/28 04:34:46;;;;;;;12.63;2.05;;;;;;;3.99;99.25;103226.53;5055877;28;20432;-36
2022/01/28 04:39:50;;;;;;;8.07;2.05;;;;;;;3.97;99.74;103228.50;5055562;28;20271;-36
2022/01/28 04:47:18;;;;;;;10.95;2.25;;;;;;;3.93;100.00;103236.94;5055440;28;20033;-36
2022/01/28 05:14:09;;;;;;;9.98;1.90;;;;;;;3.75;100.00;103248.19;4993745;28;20038;-37
2022/01/28 05:17:10;;;;;;;8.95;1.85;;;;;;;3.76;100.00;103255.25;4992967;28;20181;-36
2022/01/28 05:27:39;;;;;;;10.93;1.83;;;;;;;3.71;100.00;103268.19;4993049;28;20034;-36
2022/01/28 05:30:06;;;;;;;11.57;2.30;;;;;;;3.76;100.00;103283.84;4992754;28;20498;-36
2022/01/28 05:32:31;;;;;;;16.02;2.20;;;;;;;3.72;100.00;103285.94;4992802;28;20068;-36
2022/01/28 05:34:56;;;;;;;9.83;2.27;;;;;;;3.65;100.00;103273.16;4992912;28;20117;-36
2022/01/28 05:37:22;;;;;;;12.70;2.47;;;;;;;3.68;100.00;103288.97;4993073;28;20034;-36
2022/01/28 05:39:47;;;;;;;6.67;2.13;;;;;;;3.68;100.00;103295.19;4992874;28;20046;-36
2022/01/28 05:42:12;;;;;;;9.73;1.90;;;;;;;3.66;100.00;103291.78;4992971;28;20042;-36
2022/01/28 05:44:38;;;;;;;8.73;1.93;;;;;;;3.65;100.00;103294.56;4999848;28;20109;-36
2022/01/28 05:47:03;;;;;;;11.03;2.07;;;;;;;3.64;100.00;103309.78;5054787;28;20067;-36
2022/01/28 05:49:30;;;;;;;9.52;2.22;;;;;;;3.62;100.00;103306.38;5054635;28;20100;-36
2022/01/28 05:51:55;;;;;;;14.10;1.90;;;;;;;3.59;100.00;103301.28;5054300;28;20082;-36
2022/01/28 05:54:21;;;;;;;13.82;2.70;;;;;;;3.60;100.00;103311.84;5054973;28;20033;-36
2022/01/28 05:56:46;;;;;;;7.87;1.73;;;;;;;3.56;100.00;103306.88;5054009;28;20112;-36
2022/01/28 05:59:12;;;;;;;12.90;3.13;;;;;;;3.37;100.00;103283.47;5054061;28;20029;-36
2022/01/28 06:01:37;;;;;;;10.77;2.65;;;;;;;3.53;100.00;103316.00;5053633;28;20029;-36
2022/01/28 06:04:03;;;;;;;14.27;2.43;;;;;;;3.53;100.00;103326.72;5053909;28;20036;-36
2022/01/28 06:06:28;;;;;;;11.10;1.92;;;;;;;3.36;100.00;103303.13;5053861;28;20441;-36
2022/01/28 06:08:55;;;;;;;9.98;2.15;;;;;;;3.41;100.00;103318.81;5053765;28;20033;-36
2022/01/28 06:11:22;;;;;;;13.27;2.45;;;;;;;3.41;100.00;103316.13;5053780;28;20048;-36
2022/01/28 06:13:47;;;;;;;10.27;2.38;;;;;;;3.36;100.00;103316.50;5053454;28;20025;-36
2022/01/28 06:16:14;;;;;;;11.83;2.07;;;;;;;3.38;100.00;103330.63;5053232;28;20094;-36
2022/01/28 06:18:40;;;;;;;9.98;2.25;;;;;;;3.43;100.00;103343.63;5053624;28;20370;-36
2022/01/28 06:21:05;;;;;;;10.18;2.60;;;;;;;3.40;99.79;103342.03;5054080;28;20064;-36
2022/01/28 06:23:31;;;;;;;12.90;3.03;;;;;;;3.39;100.00;103326.13;5053763;28;20029;-36
2022/01/28 06:25:57;;;;;;;10.55;2.55;;;;;;;3.33;100.00;103339.00;5053649;28;20070;-36
2022/01/28 06:28:22;;;;;;;15.70;2.53;;;;;;;3.17;99.75;103319.78;5053439;28;20033;-36
2022/01/28 06:30:48;;;;;;;11.37;2.80;;;;;;;3.32;100.00;103352.53;5053569;28;20436;-36
2022/01/28 06:33:14;;;;;;;13.77;3.07;;;;;;;3.17;99.32;103343.00;5054463;28;20068;-37
2022/01/28 06:35:40;;;;;;;10.35;2.10;;;;;;;3.26;99.53;103364.53;5053677;28;20063;-37
2022/01/28 06:38:06;;;;;;;11.60;2.08;;;;;;;3.22;99.78;103373.78;5053058;28;20547;-37
2022/01/28 06:40:31;;;;;;;16.60;2.23;;;;;;;3.22;100.00;103383.59;5053359;28;20068;-35
2022/01/28 06:42:56;;;;;;;9.70;2.27;;;;;;;3.24;100.00;103379.00;5053296;28;20112;-36
2022/01/28 06:45:22;;;;;;;7.47;1.43;;;;;;;3.20;100.00;103361.50;5053714;28;20033;-35
2022/01/28 06:47:47;;;;;;;8.40;2.10;;;;;;;3.15;99.54;103382.41;5053263;28;20108;-35
2022/01/28 06:50:13;;;;;;;9.53;2.07;;;;;;;3.04;99.38;103399.28;5052941;28;20147;-35
2022/01/28 06:52:39;;;;;;;6.37;1.57;;;;;;;2.89;99.92;103387.97;5052842;28;20565;-35
2022/01/28 06:55:06;;;;;;;13.95;2.38;;;;;;;2.82;99.11;103405.41;5053231;28;20743;-35
2022/01/28 06:57:31;;;;;;;8.55;2.42;;;;;;;2.83;99.98;103391.06;5052963;28;20029;-35
2022/01/28 06:59:58;;;;;;;9.20;1.90;;;;;;;2.86;99.84;103403.38;5052986;28;20090;-35
2022/01/28 07:02:23;;;;;;;11.98;2.72;;;;;;;2.84;100.00;103406.16;5052939;28;20039;-35
2022/01/28 07:04:49;;;;;;;7.75;3.65;;;;;;;2.85;100.00;103426.56;5053067;28;20029;-35
2022/01/28 07:07:14;;;;;;;12.57;4.60;;;;;;;2.76;99.45;103435.28;5052917;28;20052;-35
2022/01/28 07:09:40;;;;;;;10.50;3.63;;;;;;;2.71;99.37;103426.78;5053324;28;20097;-35
2022/01/28 07:12:06;;;;;;;15.93;3.57;;;;;;;2.80;100.00;103434.09;5053075;28;20033;-36
2022/01/28 07:14:31;;;;;;;9.60;2.95;;;;;;;2.82;100.00;103438.34;5052851;28;20298;-36
2022/01/28 07:16:57;;;;;;;10.63;2.50;;;;;;;2.68;100.00;103427.84;5053127;28;20029;-36
2022/01/28 07:19:22;;;;;;;6.33;2.30;;;;;;;2.58;100.00;103422.34;5053145;28;20036;-36
2022/01/28 07:21:48;;;;;;;9.47;2.30;;;;;;;2.67;100.00;103442.16;5052754;28;20279;-36
2022/01/28 07:24:13;;;;;;;7.80;2.20;;;;;;;2.53;100.00;103420.97;5052985;28;20032;-36
2022/01/28 07:26:38;;;;;;;9.20;2.33;;;;;;;2.60;100.00;103435.59;5052746;28;20025;-36
2022/01/28 07:29:04;;;;;;;8.93;2.63;;;;;;;2.48;99.88;103436.50;5052421;28;20026;-36
2022/01/28 07:31:30;;;;;;;7.30;2.20;;;;;;;2.51;99.81;103452.31;5053271;28;20287;-36
2022/01/28 07:33:55;;;;;;;17.13;7.32;;;;;;;2.48;100.00;103455.19;5052675;28;20064;-36
2022/01/28 07:36:20;;;;;;;15.33;5.17;;;;;;;2.39;100.00;103459.44;5052943;28;20172;-36
2022/01/28 07:38:46;;;;;;;11.83;4.60;;;;;;;2.40;100.00;103468.28;5052649;28;20028;-36
2022/01/28 07:41:11;;;;;;;14.17;4.10;;;;;;;2.34;99.96;103458.88;5052937;28;20025;-36
2022/01/28 07:43:39;;;;;;;12.83;3.77;;;;;;;2.31;100.00;103467.16;5052553;28;20105;-36
2022/01/28 07:46:05;;;;;;;9.35;4.10;;;;;;;2.31;100.00;103472.47;5054445;28;20275;-36
2022/01/28 07:48:31;;;;;;;18.30;6.10;;;;;;;2.29;100.00;103474.41;5056388;28;20033;-36
2022/01/28 07:50:56;;;;;;;25.02;12.40;;;;;;;2.35;100.00;103467.78;5056238;28;20029;-36
2022/01/28 07:53:22;;;;;;;14.33;5.37;;;;;;;2.27;100.00;103466.50;5056445;28;20100;-36
2022/01/28 07:55:47;;;;;;;12.97;4.13;;;;;;;2.41;100.00;103472.66;5056078;28;20029;-36
2022/01/28 07:58:12;;;;;;;12.73;4.43;;;;;;;2.40;100.00;103481.66;5056391;28;20036;-36
2022/01/28 08:00:38;;;;;;;10.67;3.80;;;;;;;2.35;100.00;103481.97;5056355;28;20032;-36
2022/01/28 08:03:04;;;;;;;11.35;3.25;;;;;;;2.31;99.88;103488.50;5056184;28;20444;-36
2022/01/28 08:05:29;;;;;;;9.43;2.67;;;;;;;2.40;100.00;103484.31;5056727;28;20035;-36
2022/01/28 08:07:55;;;;;;;11.23;3.67;;;;;;;2.37;100.00;103481.84;5056025;28;20113;-35
2022/01/28 08:10:20;;;;;;;11.10;3.60;;;;;;;2.32;100.00;103474.19;5056753;28;20368;-35
2022/01/28 08:12:51;;;;;;;15.63;5.17;;;;;;;2.40;100.00;103482.50;5055939;28;20021;-36
2022/01/28 08:15:18;;;;;;;12.50;5.32;;;;;;;2.59;100.00;103506.03;5055889;28;20032;-35
2022/01/28 08:17:44;;;;;;;13.68;6.03;;;;;;;2.46;100.00;103500.72;5055568;28;20021;-37
2022/01/28 08:20:10;;;;;;;13.02;5.57;;;;;;;2.43;100.00;103510.78;5056073;28;20461;-35
2022/01/28 08:22:45;;;;;;;15.43;6.05;;;;;;;2.54;100.00;103508.19;5055758;28;20037;-35
2022/01/28 08:25:10;;;;;;;13.27;4.32;;;;;;;2.62;100.00;103518.28;5056101;28;20128;-35
2022/01/28 08:27:35;;;;;;;12.53;4.10;;;;;;;2.72;100.00;103533.53;5056016;28;20496;-36
2022/01/28 08:30:01;;;;;;;11.47;4.07;;;;;;;2.74;100.00;103528.09;5056312;28;20033;-36
2022/01/28 08:32:27;;;;;;;9.63;4.33;;;;;;;2.92;100.00;103526.69;5056271;28;20052;-36
2022/01/28 08:34:53;;;;;;;8.65;3.45;;;;;;;2.94;100.00;103523.91;5055672;28;20025;-36
2022/01/28 08:37:19;;;;;;;13.60;4.13;;;;;;;3.06;100.00;103528.31;5055632;28;20441;-36
2022/01/28 08:39:44;;;;;;;15.55;4.50;;;;;;;3.04;100.00;103538.31;5055750;28;20068;-36
2022/01/28 08:42:10;;;;;;;12.20;4.37;;;;;;;3.13;100.00;103534.94;5055368;28;20496;-36
2022/01/28 08:44:35;;;;;;;16.03;4.90;;;;;;;3.23;100.00;103529.75;5055625;28;20028;-35
2022/01/28 08:47:00;;;;;;;13.53;4.57;;;;;;;3.32;100.00;103529.03;5055239;28;20033;-35
2022/01/28 08:49:26;;;;;;;10.67;3.80;;;;;;;3.38;100.00;103536.59;5055753;28;20028;-35
2022/01/28 08:51:51;;;;;;;10.90;3.70;;;;;;;3.45;100.00;103528.94;5056074;28;20021;-36
2022/01/28 08:54:16;;;;;;;10.77;3.13;;;;;;;3.54;100.00;103530.91;5055320;28;20028;-36
2022/01/28 08:56:42;;;;;;;9.83;3.73;;;;;;;3.49;100.00;103528.56;5055726;28;20028;-36
2022/01/28 08:59:08;;;;;;;12.95;4.45;;;;;;;3.58;99.76;103538.56;5055841;28;20115;-36
2022/01/28 09:01:33;;;;;;;11.63;3.00;;;;;;;3.68;100.00;103536.03;5055737;28;20405;-35
2022/01/28 09:03:58;;;;;;;16.43;4.50;;;;;;;3.67;99.52;103528.97;5055761;28;20025;-36
2022/01/28 09:06:24;;;;;;;14.77;3.67;;;;;;;3.65;99.72;103533.56;5055785;28;20382;-35
2022/01/28 09:08:53;;;;;;;12.67;3.97;;;;;;;3.74;99.43;103530.19;5055288;28;20428;-35
2022/01/28 09:14:04;;;;;;;13.35;4.20;;;;;;;3.94;100.00;103541.16;5033115;28;20033;-36
2022/01/28 09:16:29;;;;;;;15.87;5.80;;;;;;;3.98;98.85;103538.09;5033123;28;20042;-35
2022/01/28 09:18:55;;;;;;;18.87;8.43;;;;;;;3.99;98.17;103533.59;5032479;28;20052;-35
2022/01/28 09:21:20;;;;;;;13.82;5.90;;;;;;;4.00;98.25;103520.09;5032512;28;20026;-35
2022/01/28 09:23:48;;;;;;;10.33;4.60;;;;;;;4.04;98.12;103536.75;5032510;28;20035;-36
2022/01/28 09:26:14;;;;;;;12.48;4.30;;;;;;;4.08;97.30;103527.50;5032569;28;20484;-35
2022/01/28 09:28:39;;;;;;;11.60;4.20;;;;;;;4.10;98.15;103529.09;5032365;28;20037;-36
2022/01/28 09:31:05;;;;;;;11.63;4.78;;;;;;;4.19;97.38;103543.56;5032632;28;20379;-36
2022/01/28 09:33:30;;;;;;;15.87;3.90;;;;;;;4.28;97.36;103552.69;5032384;28;20033;-35
2022/01/28 09:35:55;;;;;;;18.90;3.93;;;;;;;4.35;97.33;103554.75;5032593;28;20076;-35
2022/01/28 09:38:21;;;;;;;11.63;3.87;;;;;;;4.44;97.73;103552.31;5032372;28;20041;-35
2022/01/28 09:40:48;;;;;;;19.77;3.42;;;;;;;4.49;97.82;103548.28;5032620;28;20152;-36
2022/01/28 09:43:14;;;;;;;12.85;3.97;;;;;;;4.56;97.31;103556.69;5032334;28;20525;-36
2022/01/28 09:45:39;;;;;;;10.93;3.95;;;;;;;4.55;97.59;103542.44;5032372;28;20041;-36
2022/01/28 09:48:05;;;;;;;10.57;3.40;;;;;;;4.64;97.35;103543.50;5032028;28;20135;-36
2022/01/28 09:50:33;;;;;;;14.00;4.18;;;;;;;4.47;97.27;103525.25;5038117;28;20041;-36
2022/01/28 09:52:59;;;;;;;14.27;4.10;;;;;;;4.70;97.54;103551.03;5054219;28;20496;-36
2022/01/28 09:55:26;;;;;;;15.55;4.55;;;;;;;4.83;97.61;103562.47;5054229;28;20393;-36
2022/01/28 09:57:59;;;;;;;11.98;3.88;;;;;;;4.78;96.93;103548.59;5053901;28;20029;-36
2022/01/28 10:00:25;;;;;;;15.35;3.78;;;;;;;4.88;97.32;103570.97;5054673;28;20128;-36
2022/01/28 10:03:05;;;;;;;14.15;5.00;;;;;;;4.96;98.03;103566.78;5054119;28;20029;-36
2022/01/28 10:05:44;;;;;;;14.88;4.05;;;;;;;5.02;97.37;103564.44;5054686;28;20075;-36
2022/01/28 10:08:15;;;;;;;12.60;4.28;;;;;;;5.04;96.96;103558.97;5053532;28;20499;-36
2022/01/28 10:10:43;;;;;;;13.90;4.45;;;;;;;5.16;97.50;103571.34;5054363;28;20376;-36
2022/01/28 10:13:14;;;;;;;17.63;4.43;;;;;;;5.21;97.18;103566.44;5053899;28;20032;-36
2022/01/28 10:15:56;;;;;;;13.05;3.88;;;;;;;5.31;97.08;103570.03;5054131;28;20029;-36
2022/01/28 10:18:40;;;;;;;9.45;3.70;;;;;;;5.27;96.51;103563.25;5053718;28;20473;-36
2022/01/28 10:21:33;;;;;;;15.32;5.20;;;;;;;5.43;96.83;103569.00;5053408;28;20025;-36
2022/01/28 10:24:04;;;;;;;14.18;4.05;;;;;;;5.50;96.74;103569.34;5054462;28;20115;-36
2022/01/28 10:26:39;;;;;;;13.77;5.32;;;;;;;5.59;96.54;103568.53;5054471;28;20068;-36
2022/01/28 10:29:12;;;;;;;14.77;4.45;;;;;;;5.59;96.03;103576.59;5054014;28;20060;-36
2022/01/28 10:31:38;;;;;;;12.90;4.10;;;;;;;5.62;95.55;103565.63;5053692;28;20410;-36
2022/01/28 10:34:29;;;;;;;13.65;4.15;;;;;;;5.74;96.27;103577.13;5053150;28;20477;-36
2022/01/28 10:37:13;;;;;;;18.02;5.15;;;;;;;5.83;95.39;103588.91;5052915;28;20389;-36
2022/01/28 10:39:43;;;;;;;18.42;4.25;;;;;;;5.87;95.34;103580.44;5053398;28;20481;-36
2022/01/28 10:42:11;;;;;;;15.90;4.10;;;;;;;5.94;95.08;103575.41;5053679;28;20537;-36
2022/01/28 10:44:53;;;;;;;14.35;3.80;;;;;;;6.06;94.54;103584.25;5054141;28;20400;-36
2022/01/28 10:47:48;;;;;;;13.25;4.18;;;;;;;6.14;94.36;103579.03;5053350;28;20029;-36
2022/01/28 10:50:48;;;;;;;23.38;4.88;;;;;;;6.22;94.32;103567.63;5053455;28;20021;-36
2022/01/28 10:53:17;;;;;;;11.15;4.30;;;;;;;6.22;93.31;103555.03;5050233;28;20476;-36
2022/01/28 10:55:54;;;;;;;11.32;3.50;;;;;;;6.32;92.66;103563.13;5053751;28;20174;-36
2022/01/28 10:58:20;;;;;;;;;;;;;;;6.41;94.38;103563.16;5053295;28;20086;-36
2022/01/28 11:00:48;;;;;;;12.90;3.25;;;;;;;6.34;92.80;103547.72;5053663;28;19908;-36
2022/01/28 11:03:25;;;;;;;16.73;4.13;;;;;;;6.38;91.77;103539.25;5053063;28;20043;-36
2022/01/28 11:05:52;;;;;;;14.50;3.80;;;;;;;6.43;91.26;103534.28;5053244;28;20033;-36
2022/01/28 11:08:17;;;;;;;14.35;3.80;;;;;;;6.55;91.98;103555.72;5053478;28;20115;-36
2022/01/28 11:10:43;;;;;;;19.17;4.13;;;;;;;6.62;91.73;103551.47;5053573;28;20113;-36
2022/01/28 11:13:09;;;;;;;14.77;3.03;;;;;;;6.66;89.78;103539.44;5053072;28;20036;-36
2022/01/28 11:15:35;;;;;;;15.48;3.90;;;;;;;6.71;90.84;103539.88;5052104;28;20041;-36
2022/01/28 11:18:04;;;;;;;13.85;4.00;;;;;;;6.76;89.66;103534.94;5052600;28;20021;-36
2022/01/28 11:21:03;;;;;;;14.55;4.03;;;;;;;6.91;90.42;103524.59;5054540;28;20095;-36
2022/01/28 11:23:35;;;;;;;13.57;3.13;;;;;;;6.97;88.89;103527.56;4995543;28;20104;-36
2022/01/28 11:26:21;;;;;;;14.50;3.65;;;;;;;7.11;89.24;103514.69;4995361;28;20027;-36
2022/01/28 11:28:56;;;;;;;13.53;3.07;;;;;;;7.17;89.03;103501.53;4996077;28;20054;-35
2022/01/28 11:31:51;;;;;;;11.40;3.08;;;;;;;7.31;89.08;103508.28;4995559;28;20689;-35
2022/01/28 11:34:31;;;;;;;14.20;3.95;;;;;;;7.44;87.38;103510.66;4995169;28;20045;-35
2022/01/28 11:36:59;;;;;;;10.82;3.38;;;;;;;7.55;85.98;103501.56;4995836;28;20035;-35
2022/01/28 11:39:32;;;;;;;15.43;3.60;;;;;;;7.64;85.80;103498.00;4995449;28;20494;-36
2022/01/28 11:42:13;;;;;;;15.18;3.97;;;;;;;7.63;86.06;103481.00;4995569;28;20420;-35
2022/01/28 11:44:50;;;;;;;11.20;2.80;;;;;;;7.79;83.01;103496.50;4995252;28;20034;-36
2022/01/28 11:47:24;;;;;;;10.23;2.05;;;;;;;7.60;82.55;103454.34;4995430;28;20051;-35
2022/01/28 11:50:09;;;;;;;11.23;2.83;;;;;;;7.83;82.01;103497.91;4995344;28;20134;-36
2022/01/28 11:52:38;;;;;;;14.43;2.90;;;;;;;7.84;82.93;103496.06;4994952;28;20038;-35
2022/01/28 11:55:20;;;;;;;14.43;2.88;;;;;;;7.89;82.13;103497.31;4995573;28;20096;-35
2022/01/28 11:58:05;;;;;;;7.45;2.30;;;;;;;7.91;81.69;103498.03;4995512;28;20502;-35
2022/01/28 12:00:45;;;;;;;10.40;2.45;;;;;;;7.86;82.30;103492.25;5043765;28;20059;-35
2022/01/28 12:03:19;;;;;;;11.23;2.53;;;;;;;7.84;79.51;103498.75;5056593;28;20370;-36
2022/01/28 12:05:47;;;;;;;9.10;2.10;;;;;;;7.78;80.76;103480.50;5056264;28;20033;-36
2022/01/28 12:08:15;;;;;;;11.02;2.47;;;;;;;7.86;80.02;103494.94;5056657;28;20025;-36
2022/01/28 12:10:44;;;;;;;8.98;2.20;;;;;;;7.83;79.13;103481.75;5056571;28;20083;-36
2022/01/28 12:13:14;;;;;;;13.52;2.97;;;;;;;7.88;79.52;103487.53;5056161;28;20025;-36
2022/01/28 12:15:59;;;;;;;7.07;2.38;;;;;;;8.03;80.48;103492.44;5056112;28;20115;-36
2022/01/28 12:18:26;;;;;;;9.15;2.50;;;;;;;8.08;80.13;103480.22;5056024;28;20028;-36
2022/01/28 12:20:53;;;;;;;9.68;1.80;;;;;;;7.99;79.30;103465.78;5072060;28;20394;-36
2022/01/28 12:23:18;;;;;;;10.45;2.50;;;;;;;7.99;78.00;103465.78;5055922;28;20082;-36
2022/01/28 12:25:44;;;;;;;14.80;3.40;;;;;;;7.93;78.61;103468.25;5055982;28;20037;-36
2022/01/28 12:28:31;;;;;;;9.23;2.40;;;;;;;7.85;80.24;103473.53;5054596;28;20079;-36
2022/01/28 12:31:00;;;;;;;;;;;;;;;7.84;80.69;103456.50;5055951;28;20047;-36
2022/01/28 12:33:32;;;;;;;10.48;2.33;;;;;;;7.69;79.82;103460.69;5056878;28;19917;-36
2022/01/28 12:36:00;;;;;;;8.73;2.03;;;;;;;7.73;80.76;103452.16;5055974;28;20076;-36
2022/01/28 12:38:30;;;;;;;9.38;2.33;;;;;;;7.88;80.61;103452.53;5055579;28;20025;-36
2022/01/28 12:40:58;;;;;;;9.45;2.53;;;;;;;7.96;79.43;103447.25;5056291;28;20079;-36
2022/01/28 12:43:25;;;;;;;9.63;2.33;;;;;;;7.98;77.43;103436.31;5055559;28;20029;-36
2022/01/28 12:46:00;;;;;;;9.32;2.70;;;;;;;8.08;78.82;103433.56;5056415;28;20025;-36
2022/01/28 12:48:25;;;;;;;16.60;2.65;;;;;;;8.14;77.27;103435.63;5055381;28;20054;-36
2022/01/28 12:50:52;;;;;;;9.10;2.45;;;;;;;8.14;76.33;103435.63;5055665;28;20450;-36
2022/01/28 12:53:35;;;;;;;8.88;2.58;;;;;;;8.20;77.96;103421.56;5055588;28;20028;-36
2022/01/28 12:56:01;;;;;;;16.48;2.90;;;;;;;8.18;75.67;103423.56;5055618;28;20111;-36
2022/01/28 12:58:46;;;;;;;7.35;2.17;;;;;;;8.19;77.74;103427.94;5055505;28;20033;-36
2022/01/28 13:01:15;;;;;;;10.35;2.33;;;;;;;7.98;77.13;103418.28;5056095;28;20029;-37
2022/01/28 13:03:49;;;;;;;8.63;2.13;;;;;;;7.91;76.45;103428.00;5055385;28;20025;-36
2022/01/28 13:09:19;;;;;;;9.82;2.65;;;;;;;7.71;78.79;103413.78;5013104;28;20034;-37
2022/01/28 13:11:46;;;;;;;11.98;3.00;;;;;;;7.67;78.42;103415.06;5013678;28;20395;-36